ADDS METAR Data INFO
IDs: Format: Raw Decoded Include TAF

Data at: 0607 UTC 25 Jun 2018

KDKR 250550Z AUTO 17007KT 10SM FEW020 25/23 A2997 RMK AO2
KDKR 250530Z AUTO 16007KT 10SM CLR 25/23 A2997 RMK AO2
KDKR 250510Z AUTO 16007KT 10SM CLR 26/23 A2997 RMK AO2
KDKR 250450Z AUTO 14006KT 10SM CLR 26/23 A2998 RMK AO2
KDKR 250430Z AUTO 13006KT 10SM CLR 27/23 A2997 RMK AO2
KDKR 250410Z AUTO 14004KT 10SM CLR 27/23 A2997 RMK AO2
KDKR 250350Z AUTO 13004KT 10SM CLR 27/23 A2997 RMK AO2
KDKR 250330Z AUTO 14005KT 10SM CLR 27/23 A2996 RMK AO2
KDKR 250310Z AUTO 15006KT 10SM CLR 28/23 A2995 RMK AO2
KDKR 250250Z AUTO 15007KT 10SM CLR 28/23 A2995 RMK AO2
KDKR 250230Z AUTO 15008KT 10SM CLR 28/23 A2994 RMK AO2
KDKR 250210Z AUTO 15007KT 10SM CLR 28/23 A2994 RMK AO2
KDKR 250150Z AUTO 15008KT 10SM CLR 29/23 A2993 RMK AO2
KDKR 250130Z AUTO 15008KT 10SM CLR 29/23 A2993 RMK AO2
KDKR 250110Z AUTO 15005KT 10SM CLR 30/23 A2994 RMK AO2
KDKR 250050Z AUTO 15004KT 10SM CLR 30/23 A2993 RMK AO2
KDKR 250030Z AUTO 16011G15KT 10SM CLR 31/22 A2992 RMK AO2
KDKR 250010Z AUTO 16009G14KT 10SM CLR 32/24 A2991 RMK AO2
KDKR 242350Z AUTO 17011G17KT 10SM CLR 32/24 A2991 RMK AO2
KDKR 242330Z AUTO 17011G19KT 10SM CLR 33/24 A2990 RMK AO2
KDKR 242310Z AUTO 15011G14KT 10SM FEW043 32/24 A2990 RMK AO2
KDKR 242250Z AUTO 15010G15KT 10SM FEW043 FEW050 33/24 A2990 RMK AO2
KDKR 242230Z AUTO 16009G15KT 120V180 10SM FEW050 FEW060 33/24 A2990 RMK AO2
KDKR 242210Z AUTO 17005G18KT 10SM FEW044 33/24 A2991 RMK AO2
KDKR 242150Z AUTO 17009G17KT 10SM CLR 34/24 A2990 RMK AO2
KDKR 242130Z AUTO 18008G16KT 10SM FEW044 34/24 A2991 RMK AO2
KDKR 242110Z AUTO 19012G17KT 10SM FEW065 34/23 A2990 RMK AO2
KDKR 242050Z AUTO 17008G14KT 10SM FEW049 SCT065 32/23 A2990 RMK AO2
KDKR 242030Z AUTO 18011G15KT 10SM FEW036 SCT049 SCT065 34/23 A2991 RMK AO2
KDKR 242010Z AUTO 18010G16KT 10SM CLR 33/23 A2992 RMK AO2
KDKR 241950Z AUTO 18010G19KT 10SM CLR 34/23 A2991 RMK AO2
KDKR 241930Z AUTO 18012G16KT 10SM CLR 34/23 A2993 RMK AO2
KDKR 241910Z AUTO 16013G18KT 120V190 10SM CLR 34/23 A2993 RMK AO2
KDKR 241850Z AUTO 18010G15KT 10SM FEW045 SCT070 33/23 A2994 RMK AO2
KDKR 241830Z AUTO 18009KT 140V220 10SM FEW039 FEW047 SCT055 33/24 A2994 RMK AO2
KDKR 241810Z AUTO 17010G15KT 130V190 10SM FEW044 SCT055 SCT095 33/23 A2995 RMK AO2
KDKR 241750Z AUTO 18011G16KT 10SM FEW034 FEW095 33/24 A2996 RMK AO2
KDKR 241730Z AUTO 15008KT 10SM FEW050 33/23 A2996 RMK AO2
KDKR 241710Z AUTO 18011KT 10SM FEW040 FEW050 32/24 A2996 RMK AO2
KDKR 241650Z AUTO 20009G15KT 10SM FEW033 SCT041 BKN050 32/23 A2996 RMK AO2
KDKR 241630Z AUTO 18009KT 10SM FEW035 SCT046 BKN050 32/24 A2996 RMK AO2
KDKR 241610Z AUTO 20009G15KT 10SM SCT033 SCT044 BKN100 31/24 A2996 RMK AO2
KDKR 241550Z AUTO 18012G19KT 10SM FEW027 SCT034 BKN044 30/24 A2995 RMK AO2
KDKR 241530Z AUTO 21007G14KT 10SM SCT027 BKN032 OVC045 29/23 A2995 RMK AO2
KDKR 241510Z AUTO 21010KT 10SM SCT025 SCT030 BKN039 29/23 A2995 RMK AO2
KDKR 241450Z AUTO 20012G18KT 10SM FEW035 30/24 A2994 RMK AO2
KDKR 241430Z AUTO 19010G19KT 10SM FEW020 SCT029 28/24 A2995 RMK AO2
KDKR 241410Z AUTO 20006KT 10SM SCT019 BKN025 BKN030 27/24 A2994 RMK AO2
KDKR 241350Z AUTO 18012G16KT 10SM SCT017 BKN025 BKN031 28/24 A2993 RMK AO2
KDKR 241330Z AUTO 19011G15KT 10SM FEW015 27/24 A2992 RMK AO2
KDKR 241310Z AUTO 18010G16KT 10SM CLR 27/24 A2991 RMK AO2
KDKR 241250Z AUTO 17010G16KT 10SM CLR 26/24 A2991 RMK AO2
KDKR 241230Z AUTO 16008KT 10SM CLR 25/24 A2990 RMK AO2
KDKR 241210Z AUTO 17008KT 10SM CLR 25/24 A2989 RMK AO2
KDKR 241150Z AUTO 17008KT 10SM CLR 24/23 A2989 RMK AO2
KDKR 241130Z AUTO 17008KT 10SM CLR 24/23 A2989 RMK AO2
KDKR 241110Z AUTO 17007KT 10SM CLR 24/23 A2989 RMK AO2
KDKR 241050Z AUTO 17007KT 10SM CLR 24/23 A2989 RMK AO2
KDKR 241030Z AUTO 18005KT 10SM CLR 24/23 A2989 RMK AO2
KDKR 241010Z AUTO 18007KT 10SM CLR 24/23 A2989 RMK AO2
KDKR 240950Z AUTO 16008KT 10SM CLR 24/24 A2988 RMK AO2
KDKR 240930Z AUTO 16008KT 9SM CLR 24/23 A2989 RMK AO2
KDKR 240910Z AUTO 17006KT 10SM FEW034 24/24 A2990 RMK AO2
KDKR 240850Z AUTO 18005KT 10SM FEW021 SCT036 25/24 A2991 RMK AO2
KDKR 240830Z AUTO 17006KT 10SM 25/24 A2992 RMK AO2
KDKR 240810Z AUTO 18005KT 10SM FEW021 SCT032 BKN042 25/24 A2994 RMK AO2
KDKR 240750Z AUTO 00000KT 10SM FEW024 BKN032 BKN039 25/24 A2995 RMK AO2
KDKR 240730Z AUTO 19005KT 10SM CLR 25/24 A2994 RMK AO2
KDKR 240710Z AUTO 18004KT 10SM CLR 25/24 A2993 RMK AO2
KDKR 240650Z AUTO 18003KT 10SM CLR 25/24 A2993 RMK AO2
KDKR 240630Z AUTO 17003KT 10SM SCT014 25/24 A2993 RMK AO2
KDKR 240610Z AUTO 18005KT 10SM SCT014 25/24 A2993 RMK AO2
KDKR 240550Z AUTO 18006KT 10SM BKN014 26/24 A2991 RMK AO2
KDKR 240530Z AUTO 17008KT 10SM BKN016 26/24 A2991 RMK AO2
KDKR 240510Z AUTO 17007KT 10SM BKN016 26/24 A2991 RMK AO2
KDKR 240450Z AUTO 17006KT 10SM SCT016 26/24 A2990 RMK AO2
KDKR 240430Z AUTO 17006KT 10SM FEW018 27/24 A2989 RMK AO2
KDKR 240410Z AUTO 16007KT 10SM CLR 27/24 A2987 RMK AO2
KDKR 240350Z AUTO 15006KT 10SM CLR 27/24 A2986 RMK AO2
KDKR 240330Z AUTO 15007KT 10SM CLR 27/24 A2985 RMK AO2
KDKR 240310Z AUTO 15008G14KT 10SM CLR 28/24 A2984 RMK AO2
KDKR 240250Z AUTO 15011KT 10SM CLR 28/24 A2984 RMK AO2
KDKR 240230Z AUTO 15009G14KT 10SM CLR 28/24 A2983 RMK AO2
KDKR 240210Z AUTO 16008KT 10SM CLR 28/24 A2983 RMK AO2
KDKR 240150Z AUTO 15008KT 10SM CLR 29/24 A2982 RMK AO2
KDKR 240130Z AUTO 14008KT 10SM CLR 29/24 A2982 RMK AO2
KDKR 240110Z AUTO 15004KT 10SM CLR 30/24 A2982 RMK AO2
KDKR 240050Z AUTO 15007KT 10SM FEW050 30/24 A2982 RMK AO2
KDKR 240030Z AUTO 16011G15KT 10SM FEW043 31/24 A2982 RMK AO2
KDKR 240010Z AUTO 15011KT 10SM CLR 32/24 A2981 RMK AO2
KDKR 232350Z AUTO 16007G14KT 10SM FEW047 32/24 A2981 RMK AO2
KDKR 232330Z AUTO 17009KT 10SM FEW047 33/23 A2981 RMK AO2
KDKR 232310Z AUTO 16008G14KT 10SM CLR 33/23 A2981 RMK AO2
KDKR 232250Z AUTO 18009G15KT 10SM CLR 33/23 A2981 RMK AO2
KDKR 232230Z AUTO 17007KT 10SM CLR 33/23 A2982 RMK AO2
KDKR 232210Z AUTO 19009KT 10SM CLR 33/23 A2983 RMK AO2
KDKR 232150Z AUTO 16010G15KT 10SM CLR 34/23 A2983 RMK AO2
KDKR 232130Z AUTO 18007G14KT 10SM FEW047 34/23 A2984 RMK AO2
KDKR 232110Z AUTO 17010G15KT 10SM FEW047 34/23 A2984 RMK AO2
KDKR 232050Z AUTO 15007G14KT 10SM SCT047 33/23 A2985 RMK AO2
KDKR 232030Z AUTO 16008G14KT 10SM FEW047 33/23 A2986 RMK AO2
KDKR 232010Z AUTO 20007KT 10SM FEW045 33/23 A2987 RMK AO2
KDKR 231950Z AUTO 18008G15KT 10SM FEW047 33/23 A2988 RMK AO2
KDKR 231930Z AUTO 19010G14KT 10SM FEW043 33/23 A2988 RMK AO2
KDKR 231910Z AUTO 17009KT 10SM FEW043 32/22 A2989 RMK AO2
KDKR 231850Z AUTO 19007KT 10SM FEW039 SCT050 SCT090 32/23 A2990 RMK AO2
KDKR 231830Z AUTO 20005KT 10SM FEW039 SCT050 SCT085 33/23 A2991 RMK AO2
KDKR 231810Z AUTO 16008KT 10SM FEW039 SCT095 32/22 A2992 RMK AO2